Time;durP1;ratioP1;P1;durP2;ratioP2;P2;SDS_P1;SDS_P2;PMS_P1;PMS_P2;Temp;Humidity;BMP_temperature;BMP_pressure;BME280_temperature;BME280_humidity;BME280_pressure;Samples;Min_cycle;Max_cycle;Signal;HPM_P1;HPM_P2
2022/02/12 00:00:18;;;;;;;26.52;10.43;;;;;;;-1.81;100.00;103216.34;5092859;28;20044;-80
2022/02/12 00:02:43;;;;;;;28.00;10.55;;;;;;;-1.88;100.00;103211.38;5094642;28;20452;-78
2022/02/12 00:05:09;;;;;;;30.48;10.63;;;;;;;-1.91;100.00;103203.31;5094389;28;20432;-78
2022/02/12 00:07:36;;;;;;;29.60;10.10;;;;;;;-1.85;100.00;103203.91;5094411;28;20024;-80
2022/02/12 00:10:03;;;;;;;26.58;9.50;;;;;;;-1.73;100.00;103208.38;5094077;28;20050;-83
2022/02/12 00:12:28;;;;;;;26.55;9.80;;;;;;;-1.73;100.00;103208.38;5094401;28;20024;-82
2022/02/12 00:14:56;;;;;;;29.67;10.38;;;;;;;-1.82;100.00;103206.78;5094615;28;20039;-78
2022/02/12 00:17:21;;;;;;;27.08;9.75;;;;;;;-1.81;100.00;103205.09;5094031;28;20012;-80
2022/02/12 00:19:47;;;;;;;27.30;10.07;;;;;;;-1.86;100.00;103202.06;5094043;28;20035;-80
2022/02/12 00:22:12;;;;;;;26.58;10.32;;;;;;;-1.80;100.00;103213.00;5094436;28;20020;-80
2022/02/12 00:24:37;;;;;;;29.25;11.25;;;;;;;-1.83;100.00;103201.44;5094177;28;20035;-84
2022/02/12 00:27:03;;;;;;;30.50;11.73;;;;;;;-1.81;100.00;103197.31;5093755;28;20475;-85
2022/02/12 00:29:28;;;;;;;29.00;11.20;;;;;;;-1.87;100.00;103186.38;5094094;28;20056;-84
2022/02/12 00:31:53;;;;;;;28.13;11.93;;;;;;;-1.93;100.00;103184.13;5093676;28;20051;-81
2022/02/12 00:34:18;;;;;;;29.15;11.95;;;;;;;-1.85;100.00;103188.34;5093994;28;20024;-81
2022/02/12 00:36:44;;;;;;;30.38;12.50;;;;;;;-1.94;100.00;103185.81;5093695;28;20016;-83
2022/02/12 00:39:09;;;;;;;27.77;11.38;;;;;;;-2.01;100.00;103182.50;5093509;28;20051;-84
2022/02/12 00:41:35;;;;;;;28.65;12.50;;;;;;;-2.05;100.00;103177.78;5093757;28;20024;-85
2022/02/12 00:44:00;;;;;;;31.95;12.75;;;;;;;-2.05;100.00;103182.97;5093434;28;20371;-83
2022/02/12 00:46:26;;;;;;;26.60;11.45;;;;;;;-2.21;100.00;103176.38;5093722;28;20039;-83
2022/02/12 00:48:51;;;;;;;30.38;11.38;;;;;;;-2.24;100.00;103181.28;5093758;28;20056;-79
2022/02/12 00:51:16;;;;;;;26.92;11.35;;;;;;;-2.30;100.00;103180.69;5093496;28;20028;-84
2022/02/12 00:53:42;;;;;;;29.98;12.07;;;;;;;-2.34;100.00;103176.00;5093372;28;20431;-84
2022/02/12 00:56:07;;;;;;;28.10;12.05;;;;;;;-2.31;100.00;103176.28;5093799;28;20055;-78
2022/02/12 00:58:33;;;;;;;27.40;11.63;;;;;;;-2.44;100.00;103170.72;5091857;28;20047;-80
2022/02/12 01:00:58;;;;;;;26.73;11.88;;;;;;;-2.48;100.00;103165.22;5093047;28;20383;-78
2022/02/12 01:03:23;;;;;;;28.85;11.98;;;;;;;-2.51;100.00;103164.94;5093389;28;20064;-85
2022/02/12 01:05:49;;;;;;;29.52;11.93;;;;;;;-2.47;100.00;103156.69;5093235;28;20027;-82
2022/02/12 01:08:14;;;;;;;30.85;12.90;;;;;;;-2.35;100.00;103158.63;5093209;28;20107;-83
2022/02/12 01:10:40;;;;;;;32.17;13.20;;;;;;;-2.41;100.00;103161.53;5093048;28;20024;-77
2022/02/12 01:13:05;;;;;;;28.48;12.27;;;;;;;-2.40;100.00;103155.59;5093085;28;20024;-79
2022/02/12 01:15:33;;;;;;;29.88;12.45;;;;;;;-2.53;100.00;103150.94;5091546;28;20048;-78
2022/02/12 01:17:59;;;;;;;31.05;13.23;;;;;;;-2.47;100.00;103146.34;5093353;28;20411;-80
2022/02/12 01:20:24;;;;;;;28.92;12.40;;;;;;;-2.43;100.00;103146.63;5092912;28;20110;-78
2022/02/12 01:22:49;;;;;;;30.38;13.30;;;;;;;-2.39;100.00;103144.44;5093128;28;20028;-81
2022/02/12 01:25:15;;;;;;;29.83;12.77;;;;;;;-2.36;100.00;103144.78;5092895;28;20024;-77
2022/02/12 01:27:41;;;;;;;29.60;12.77;;;;;;;-2.51;100.00;103141.63;5093147;28;20099;-78
2022/02/12 01:30:07;;;;;;;32.72;15.40;;;;;;;-2.32;100.00;103148.53;5092846;28;20402;-80
2022/02/12 01:32:33;;;;;;;34.95;16.17;;;;;;;-2.24;100.00;103142.41;5092792;28;20032;-82
2022/02/12 01:34:58;;;;;;;37.47;15.90;;;;;;;-2.17;100.00;103142.22;5092874;28;20035;-79
2022/02/12 01:37:24;;;;;;;32.75;15.52;;;;;;;-2.33;100.00;103144.13;5092898;28;20024;-80
2022/02/12 01:39:50;;;;;;;32.45;14.95;;;;;;;-2.20;100.00;103144.53;5092658;28;20078;-78
2022/02/12 01:42:16;;;;;;;30.13;14.60;;;;;;;-2.19;100.00;103138.53;5092719;28;20368;-81
2022/02/12 01:44:42;;;;;;;30.30;14.30;;;;;;;-2.30;100.00;103139.22;5092883;28;20111;-79
2022/02/12 01:47:09;;;;;;;33.45;15.52;;;;;;;-2.19;100.00;103138.53;5092649;28;20032;-80
2022/02/12 01:49:35;;;;;;;29.23;14.32;;;;;;;-2.25;100.00;103131.91;5092566;28;20032;-84
2022/02/12 01:52:03;;;;;;;30.55;14.82;;;;;;;-2.21;100.00;103132.31;5092880;28;20028;-84
2022/02/12 01:54:29;;;;;;;31.20;14.48;;;;;;;-2.25;100.00;103132.81;5089086;28;20441;-82
2022/02/12 01:56:56;;;;;;;29.55;13.75;;;;;;;-2.42;100.00;103141.56;5092558;28;20067;-84
2022/02/12 01:59:22;;;;;;;30.92;14.55;;;;;;;-2.43;100.00;103126.81;5092543;28;20032;-84
2022/02/12 02:01:48;;;;;;;31.48;14.63;;;;;;;-2.36;100.00;103124.03;5092525;28;20028;-83
2022/02/12 02:04:14;;;;;;;34.08;15.13;;;;;;;-2.54;100.00;103130.09;5091168;28;20516;-85
2022/02/12 02:06:39;;;;;;;32.03;15.10;;;;;;;-2.51;100.00;103123.50;5092946;28;20055;-84
2022/02/12 02:09:06;;;;;;;31.67;15.48;;;;;;;-2.41;100.00;103125.28;5092335;28;20027;-83
2022/02/12 02:11:32;;;;;;;34.22;15.50;;;;;;;-2.35;100.00;103111.97;5092730;28;20028;-84
2022/02/12 02:13:57;;;;;;;34.35;16.25;;;;;;;-2.40;100.00;103111.56;5095468;28;20384;-76
2022/02/12 02:16:23;;;;;;;36.00;16.00;;;;;;;-2.39;100.00;103112.47;5096255;28;20024;-77
2022/02/12 02:18:48;;;;;;;36.00;15.18;;;;;;;-2.47;100.00;103097.13;5096538;28;20020;-82
2022/02/12 02:21:16;;;;;;;33.75;15.63;;;;;;;-2.48;100.00;103109.94;5096205;28;20024;-78
2022/02/12 02:23:42;;;;;;;30.40;15.48;;;;;;;-2.50;100.00;103102.00;5078027;28;20119;-76
2022/02/12 02:26:08;;;;;;;34.72;15.85;;;;;;;-2.44;100.00;103091.31;5096435;28;20046;-81
2022/02/12 02:28:34;;;;;;;35.10;15.95;;;;;;;-2.40;100.00;103090.84;5096078;28;20377;-77
2022/02/12 02:30:59;;;;;;;35.33;16.00;;;;;;;-2.36;100.00;103090.34;5096107;28;20044;-78
2022/02/12 02:33:25;;;;;;;31.58;15.52;;;;;;;-2.39;100.00;103089.16;5096532;28;20024;-80
2022/02/12 02:35:51;;;;;;;35.95;15.75;;;;;;;-2.35;100.00;103088.66;5096094;28;20032;-77
2022/02/12 02:38:17;;;;;;;32.88;16.08;;;;;;;-2.34;100.00;103091.41;5096082;28;20031;-78
2022/02/12 02:40:42;;;;;;;35.63;16.48;;;;;;;-2.30;100.00;103089.97;5096171;28;20102;-77
2022/02/12 02:43:09;;;;;;;36.38;16.60;;;;;;;-2.30;100.00;103085.72;5095791;28;20112;-77
2022/02/12 02:45:35;;;;;;;34.60;16.20;;;;;;;-2.30;100.00;103089.97;5095659;28;20055;-79
2022/02/12 02:48:03;;;;;;;32.97;16.05;;;;;;;-2.36;100.00;103082.59;5096127;28;20056;-78
2022/02/12 02:56:10;;;;;;;34.30;17.00;;;;;;;-2.36;100.00;103066.09;5040557;28;20080;-78
2022/02/12 02:58:39;;;;;;;34.03;16.70;;;;;;;-2.34;100.00;103072.34;5044275;28;20051;-78
2022/02/12 03:01:07;;;;;;;34.05;16.15;;;;;;;-2.43;100.00;103079.25;5041928;28;20447;-76
2022/02/12 03:03:33;;;;;;;33.42;16.30;;;;;;;-2.46;100.00;103059.19;5044862;28;20119;-77
2022/02/12 03:05:58;;;;;;;35.47;16.88;;;;;;;-2.52;100.00;103061.19;5024775;28;20132;-80
2022/02/12 03:08:25;;;;;;;34.80;16.42;;;;;;;-2.49;100.00;103057.22;5044306;28;20033;-82
2022/02/12 03:10:50;;;;;;;39.13;17.70;;;;;;;-2.47;100.00;103047.91;5042270;28;20115;-79
2022/02/12 03:13:15;;;;;;;35.40;16.73;;;;;;;-2.47;100.00;103040.13;5043167;28;20113;-81
2022/02/12 03:15:41;;;;;;;33.83;17.23;;;;;;;-2.44;100.00;103042.09;5043517;28;20032;-78
2022/02/12 03:18:07;;;;;;;36.17;17.60;;;;;;;-2.44;100.00;103043.78;5041826;28;20033;-83
2022/02/12 03:20:32;;;;;;;34.47;17.23;;;;;;;-2.42;100.00;103035.34;5044443;28;20128;-78
2022/02/12 03:22:58;;;;;;;37.78;18.00;;;;;;;-2.39;100.00;103029.56;5041114;28;20042;-77
2022/02/12 03:25:23;;;;;;;36.70;16.75;;;;;;;-2.35;100.00;103026.47;5043686;28;20028;-82
2022/02/12 03:27:57;;;;;;;37.47;16.10;;;;;;;-2.39;100.00;103020.09;5041925;28;20404;-81
2022/02/12 03:30:24;;;;;;;34.92;16.30;;;;;;;-2.39;100.00;103025.28;5079230;28;20052;-84
2022/02/12 03:32:50;;;;;;;33.97;16.02;;;;;;;-2.41;100.00;103023.34;5095219;28;20031;-82
2022/02/12 03:35:15;;;;;;;35.05;16.33;;;;;;;-2.42;100.00;103018.91;5093142;28;20040;-77
2022/02/12 03:37:43;;;;;;;35.95;16.30;;;;;;;-2.43;100.00;103020.59;5093784;28;20031;-77
2022/02/12 03:40:12;;;;;;;36.90;16.58;;;;;;;-2.40;100.00;103019.94;5095178;28;20052;-77
2022/02/12 03:42:39;;;;;;;32.13;15.80;;;;;;;-2.42;100.00;103014.63;5094845;28;20132;-81
2022/02/12 03:45:05;;;;;;;38.72;16.70;;;;;;;-2.54;100.00;103023.88;5095066;28;20464;-84
2022/02/12 03:47:31;;;;;;;36.15;16.45;;;;;;;-2.50;100.00;103031.16;5095120;28;20086;-78
2022/02/12 03:49:56;;;;;;;37.55;16.63;;;;;;;-2.48;100.00;103024.44;5094563;28;20036;-78
2022/02/12 03:52:22;;;;;;;34.53;16.50;;;;;;;-2.50;100.00;103028.59;5094712;28;20043;-77
2022/02/12 03:54:47;;;;;;;35.65;16.60;;;;;;;-2.51;100.00;103027.66;5094395;28;20032;-78
2022/02/12 03:57:12;;;;;;;37.92;16.90;;;;;;;-2.61;100.00;103021.50;5094694;28;20467;-80
2022/02/12 03:59:38;;;;;;;36.38;16.80;;;;;;;-2.63;100.00;103029.13;5094601;28;20440;-78
2022/02/12 04:02:03;;;;;;;34.38;16.20;;;;;;;-2.69;100.00;103019.09;5094406;28;20028;-79
2022/02/12 04:04:29;;;;;;;34.33;16.58;;;;;;;-2.64;100.00;103011.75;5094363;28;20028;-78
2022/02/12 04:06:54;;;;;;;37.58;17.38;;;;;;;-2.61;100.00;103012.03;5094510;28;20024;-78
2022/02/12 04:09:20;;;;;;;41.50;17.60;;;;;;;-2.58;100.00;103007.13;5094417;28;20372;-78
2022/02/12 04:11:45;;;;;;;37.55;16.38;;;;;;;-2.58;100.00;103001.94;5094023;28;20100;-78
2022/02/12 04:14:10;;;;;;;35.95;16.80;;;;;;;-2.61;100.00;103012.03;5094655;28;20024;-81
2022/02/12 04:16:36;;;;;;;38.33;17.27;;;;;;;-2.65;100.00;103004.75;5094234;28;20061;-79
2022/02/12 04:19:01;;;;;;;36.13;16.90;;;;;;;-2.65;100.00;103000.50;5094093;28;20404;-80
2022/02/12 04:21:27;;;;;;;39.10;17.65;;;;;;;-2.61;100.00;102991.31;5094436;28;20106;-78
2022/02/12 04:23:52;;;;;;;36.75;17.15;;;;;;;-2.58;100.00;102999.34;5094382;28;20027;-80
2022/02/12 04:26:18;;;;;;;37.72;16.98;;;;;;;-2.59;100.00;103000.16;5094308;28;20382;-77
2022/02/12 04:28:43;;;;;;;36.67;16.95;;;;;;;-2.57;100.00;103002.88;5094263;28;20035;-77
2022/02/12 04:31:09;;;;;;;37.00;17.33;;;;;;;-2.57;100.00;103000.28;5093713;28;20044;-84
2022/02/12 04:33:35;;;;;;;40.90;18.00;;;;;;;-2.59;100.00;102999.22;5093954;28;20428;-84
2022/02/12 04:36:00;;;;;;;37.42;17.77;;;;;;;-2.61;100.00;102988.72;5093097;28;20027;-84
2022/02/12 04:38:26;;;;;;;38.20;17.83;;;;;;;-2.59;100.00;102991.44;5126510;27;20374;-84
2022/02/12 04:40:51;;;;;;;39.50;17.63;;;;;;;-2.58;100.00;102986.41;5093876;28;20084;-79
2022/02/12 04:43:16;;;;;;;36.28;18.55;;;;;;;-2.58;100.00;102986.41;5093478;28;20031;-82
2022/02/12 04:45:42;;;;;;;38.17;17.98;;;;;;;-2.60;100.00;102982.78;5093820;28;20032;-78
2022/02/12 04:48:07;;;;;;;35.75;18.05;;;;;;;-2.58;100.00;102969.97;5093760;28;20471;-78
2022/02/12 04:50:33;;;;;;;34.00;17.27;;;;;;;-2.58;100.00;102968.28;5093534;28;20486;-79
2022/02/12 04:52:58;;;;;;;35.53;17.35;;;;;;;-2.61;100.00;102968.00;5089539;28;20024;-76
2022/02/12 04:55:24;;;;;;;37.65;17.98;;;;;;;-2.62;100.00;102973.97;5093546;28;20437;-78
2022/02/12 04:57:50;;;;;;;39.53;18.00;;;;;;;-2.65;100.00;102969.41;5093158;28;20024;-79
2022/02/12 05:00:16;;;;;;;38.78;18.25;;;;;;;-2.66;100.00;102964.09;5093289;28;20028;-77
2022/02/12 05:02:41;;;;;;;36.38;18.10;;;;;;;-2.65;100.00;102963.31;5093657;28;20088;-82
2022/02/12 05:05:08;;;;;;;37.38;18.15;;;;;;;-2.66;100.00;102965.00;5093273;28;20463;-77
2022/02/12 05:07:33;;;;;;;37.00;17.15;;;;;;;-2.68;100.00;102960.44;5093257;28;20530;-80
2022/02/12 05:09:59;;;;;;;40.40;17.58;;;;;;;-2.67;100.00;102952.81;5093472;28;20159;-83
2022/02/12 05:12:24;;;;;;;36.40;17.55;;;;;;;-2.69;100.00;102956.06;5093329;28;20379;-79
2022/02/12 05:14:50;;;;;;;38.28;17.15;;;;;;;-2.72;100.00;102950.56;5093105;28;20379;-78
2022/02/12 05:17:15;;;;;;;37.53;17.40;;;;;;;-2.74;100.00;102953.00;5093024;28;20479;-83
2022/02/12 05:19:41;;;;;;;38.25;17.90;;;;;;;-2.77;100.00;102944.06;5093025;28;20023;-77
2022/02/12 05:22:07;;;;;;;36.72;17.20;;;;;;;-2.73;100.00;102948.75;5093095;28;20063;-83
2022/02/12 05:24:32;;;;;;;36.30;16.98;;;;;;;-2.75;100.00;102950.28;5092998;28;20052;-80
2022/02/12 05:26:58;;;;;;;35.55;16.60;;;;;;;-2.81;100.00;102945.44;5093101;28;20465;-82
2022/02/12 05:29:23;;;;;;;34.55;17.02;;;;;;;-2.75;100.00;102942.50;5092783;28;20074;-77
2022/02/12 05:31:49;;;;;;;38.47;17.35;;;;;;;-2.73;100.00;102943.59;5092579;28;20068;-78
2022/02/12 05:34:14;;;;;;;36.15;16.90;;;;;;;-2.72;100.00;102940.22;5093064;28;20020;-82
2022/02/12 05:36:40;;;;;;;38.53;16.60;;;;;;;-2.72;100.00;102935.03;5092864;28;20051;-80
2022/02/12 05:39:05;;;;;;;38.42;17.48;;;;;;;-2.68;100.00;102931.94;5092788;28;20066;-80
2022/02/12 05:41:31;;;;;;;36.80;17.65;;;;;;;-2.63;100.00;102928.13;5092802;28;20107;-78
2022/02/12 05:43:56;;;;;;;36.03;16.95;;;;;;;-2.62;100.00;102927.34;5091547;28;20486;-87
2022/02/12 05:46:21;;;;;;;36.20;17.10;;;;;;;-2.60;100.00;102920.63;5092470;28;21000;-77
2022/02/12 05:48:47;;;;;;;38.03;17.67;;;;;;;-2.62;100.00;102917.00;5091076;28;20090;-79
2022/02/12 05:51:18;;;;;;;35.03;16.40;;;;;;;-2.61;100.00;102918.78;5092698;28;20016;-79
2022/02/12 05:53:43;;;;;;;37.88;17.13;;;;;;;-2.60;100.00;102907.66;5092466;28;20081;-78
2022/02/12 05:56:09;;;;;;;37.28;16.80;;;;;;;-2.57;100.00;102918.31;5092492;28;20408;-78
2022/02/12 05:58:34;;;;;;;37.88;17.65;;;;;;;-2.52;100.00;102913.53;5092672;28;20028;-81
2022/02/12 06:00:59;;;;;;;40.22;16.90;;;;;;;-2.49;100.00;102904.38;5125374;28;20036;-79
2022/02/12 06:03:25;;;;;;;37.22;16.55;;;;;;;-2.44;100.00;102901.31;5091342;28;20020;-79
2022/02/12 06:05:50;;;;;;;37.67;15.43;;;;;;;-2.40;100.00;102903.38;5092491;28;20073;-79
2022/02/12 06:08:15;;;;;;;35.38;15.98;;;;;;;-2.36;100.00;102900.28;5092402;28;20485;-78
2022/02/12 06:10:41;;;;;;;37.08;16.35;;;;;;;-2.34;100.00;102904.84;5092728;28;20128;-79
2022/02/12 06:13:06;;;;;;;34.70;15.45;;;;;;;-2.40;100.00;102888.75;5092368;28;20074;-78
2022/02/12 06:15:35;;;;;;;34.22;15.90;;;;;;;-2.32;100.00;102897.19;5092629;28;20028;-78
2022/02/12 06:18:01;;;;;;;35.83;15.55;;;;;;;-2.30;100.00;102891.38;5088934;28;20364;-79
2022/02/12 06:20:27;;;;;;;36.08;16.00;;;;;;;-2.29;100.00;102884.50;5092402;28;20061;-83
2022/02/12 06:22:52;;;;;;;34.95;15.30;;;;;;;-2.28;100.00;102882.06;5092376;28;20024;-78
2022/02/12 06:25:18;;;;;;;34.08;15.45;;;;;;;-2.29;100.00;102879.34;5092532;28;20103;-80
2022/02/12 06:27:43;;;;;;;35.85;15.70;;;;;;;-2.29;100.00;102871.56;5092288;28;20098;-77
2022/02/12 06:30:08;;;;;;;34.72;15.77;;;;;;;-2.29;100.00;102876.75;5092041;28;20052;-84
2022/02/12 06:32:34;;;;;;;38.88;15.77;;;;;;;-2.29;100.00;102868.97;5092389;28;20089;-82
2022/02/12 06:35:01;;;;;;;37.55;16.08;;;;;;;-2.28;100.00;102870.78;5092526;28;20030;-79
2022/02/12 06:37:30;;;;;;;33.13;15.77;;;;;;;-2.33;100.00;102864.28;5092291;28;20016;-77
2022/02/12 06:39:56;;;;;;;37.50;15.60;;;;;;;-2.35;100.00;102864.16;5092314;28;20122;-78
2022/02/12 06:42:22;;;;;;;34.42;15.60;;;;;;;-2.28;100.00;102855.25;5092091;28;20020;-77
2022/02/12 06:44:47;;;;;;;37.58;15.77;;;;;;;-2.31;100.00;102854.97;5092053;28;20086;-78
2022/02/12 06:47:13;;;;;;;35.50;15.38;;;;;;;-2.34;100.00;102847.84;5092140;28;20020;-78
2022/02/12 06:49:38;;;;;;;35.10;15.25;;;;;;;-2.36;100.00;102849.41;5091945;28;20032;-78
2022/02/12 06:52:04;;;;;;;35.25;15.20;;;;;;;-2.40;100.00;102847.31;5092073;28;20020;-83
2022/02/12 06:54:30;;;;;;;35.20;15.75;;;;;;;-2.38;100.00;102850.03;5088386;28;20471;-78
2022/02/12 06:56:55;;;;;;;37.35;15.88;;;;;;;-2.41;100.00;102849.75;5091978;28;20034;-81
2022/02/12 06:59:20;;;;;;;36.10;16.23;;;;;;;-2.43;100.00;102848.69;5093983;28;20020;-78
2022/02/12 07:01:46;;;;;;;34.15;16.02;;;;;;;-2.42;100.00;102854.00;5095447;28;20028;-79
2022/02/12 07:04:11;;;;;;;38.05;16.05;;;;;;;-2.44;100.00;102850.38;5095960;28;20070;-79
2022/02/12 07:06:36;;;;;;;33.47;15.23;;;;;;;-2.41;100.00;102857.53;5095795;28;20068;-79
2022/02/12 07:09:04;;;;;;;34.60;15.70;;;;;;;-2.34;100.00;102859.91;5095446;28;20035;-79
2022/02/12 07:11:30;;;;;;;34.92;15.73;;;;;;;-2.38;100.00;102852.63;5095370;28;20115;-79
2022/02/12 07:13:55;;;;;;;34.15;14.90;;;;;;;-2.35;100.00;102858.97;5093824;28;20124;-80
2022/02/12 07:16:20;;;;;;;35.15;15.05;;;;;;;-2.35;100.00;102864.16;5095229;28;20020;-80
2022/02/12 07:18:47;;;;;;;32.97;14.95;;;;;;;-2.32;100.00;102860.94;5095134;28;20142;-79
2022/02/12 07:21:13;;;;;;;34.40;14.30;;;;;;;-2.30;100.00;102854.19;5095590;28;20012;-80
2022/02/12 07:23:40;;;;;;;31.08;14.20;;;;;;;-2.33;100.00;102856.50;5095194;28;20357;-79
2022/02/12 07:26:06;;;;;;;30.90;14.32;;;;;;;-2.29;100.00;102856.94;5095102;28;20455;-79
2022/02/12 07:28:31;;;;;;;32.58;13.90;;;;;;;-2.23;100.00;102855.66;5095173;28;20080;-79
2022/02/12 07:30:56;;;;;;;36.72;14.52;;;;;;;-2.20;100.00;102846.47;5094905;28;20044;-79
2022/02/12 07:33:24;;;;;;;33.17;13.90;;;;;;;-2.17;100.00;102841.56;5094861;28;20027;-78
2022/02/12 07:35:50;;;;;;;36.08;14.20;;;;;;;-2.07;100.00;102844.94;5095111;28;20022;-79
2022/02/12 07:38:15;;;;;;;33.30;14.40;;;;;;;-2.02;100.00;102846.28;5095245;28;20103;-79
2022/02/12 07:40:41;;;;;;;33.60;13.55;;;;;;;-1.98;100.00;102838.88;5094727;28;20066;-83
2022/02/12 07:43:06;;;;;;;33.17;13.10;;;;;;;-2.00;100.00;102824.88;5095225;28;20032;-85
2022/02/12 07:45:32;;;;;;;31.77;13.20;;;;;;;-1.96;100.00;102831.25;5094721;28;20031;-84
2022/02/12 07:47:58;;;;;;;31.52;13.02;;;;;;;-1.94;100.00;102832.28;5093070;28;20475;-83
2022/02/12 07:50:23;;;;;;;34.42;13.57;;;;;;;-1.87;100.00;102831.13;5094837;28;20031;-85
2022/02/12 07:52:49;;;;;;;31.95;12.73;;;;;;;-1.84;100.00;102836.59;5093244;28;20149;-85
2022/02/12 07:55:15;;;;;;;32.22;13.05;;;;;;;-1.81;100.00;102822.19;5094865;28;20024;-83
2022/02/12 07:57:40;;;;;;;34.22;13.52;;;;;;;-1.81;100.00;102832.56;5094487;28;20035;-82
2022/02/12 08:00:07;;;;;;;31.38;12.73;;;;;;;-1.77;100.00;102839.81;5094435;28;20016;-79
2022/02/12 08:02:33;;;;;;;30.27;12.88;;;;;;;-1.74;100.00;102812.34;5094613;28;20039;-83
2022/02/12 08:04:58;;;;;;;33.67;12.98;;;;;;;-1.66;100.00;102819.09;5094312;28;20024;-78
2022/02/12 08:07:29;;;;;;;32.35;13.23;;;;;;;-1.70;100.00;102819.59;5094380;28;20024;-83
2022/02/12 08:09:58;;;;;;;28.65;12.85;;;;;;;-1.67;100.00;102820.78;5093575;28;20466;-85
2022/02/12 08:12:25;;;;;;;35.13;13.48;;;;;;;-1.65;100.00;102824.41;5094250;28;20032;-79
2022/02/12 08:14:55;;;;;;;34.00;13.70;;;;;;;-1.66;100.00;102821.69;5094180;28;20070;-78
2022/02/12 08:17:22;;;;;;;31.67;12.98;;;;;;;-1.64;100.00;102823.63;5093957;28;20394;-78
2022/02/12 08:19:49;;;;;;;29.60;12.32;;;;;;;-1.54;100.00;102819.22;5094282;28;20387;-78
2022/02/12 08:22:17;;;;;;;31.52;13.57;;;;;;;-1.55;100.00;102809.66;5094389;28;20379;-79
2022/02/12 08:24:43;;;;;;;31.17;13.25;;;;;;;-1.57;100.00;102809.50;5093757;28;20024;-80
2022/02/12 08:27:11;;;;;;;32.30;13.63;;;;;;;-1.56;100.00;102808.72;5094036;28;20032;-78
2022/02/12 08:29:38;;;;;;;29.60;13.18;;;;;;;-1.52;100.00;102813.38;5092478;28;20056;-80
2022/02/12 08:32:05;;;;;;;33.45;13.57;;;;;;;-1.47;100.00;102811.19;5091910;28;20439;-80
2022/02/12 08:34:30;;;;;;;28.90;12.38;;;;;;;-1.39;100.00;102806.66;5093966;28;20032;-78
2022/02/12 08:36:56;;;;;;;30.55;12.68;;;;;;;-1.32;100.00;102798.63;5093758;28;20116;-79
2022/02/12 08:39:22;;;;;;;29.42;12.10;;;;;;;-1.25;100.00;102793.16;5093950;28;20069;-78
2022/02/12 08:41:49;;;;;;;30.63;12.57;;;;;;;-1.12;100.00;102808.97;5093730;28;20021;-79
2022/02/12 08:44:15;;;;;;;33.05;12.60;;;;;;;-1.01;100.00;102803.75;5093685;28;20070;-78
2022/02/12 08:46:41;;;;;;;31.17;12.00;;;;;;;-0.93;100.00;102792.31;5093721;28;20435;-80
2022/02/12 08:49:06;;;;;;;29.20;11.85;;;;;;;-0.84;100.00;102800.84;5093836;28;20123;-79
2022/02/12 08:51:37;;;;;;;31.58;11.55;;;;;;;-0.80;100.00;102802.94;5093595;28;20024;-79
2022/02/12 08:54:10;;;;;;;29.63;11.27;;;;;;;-0.77;100.00;102797.97;5093572;28;20102;-79
2022/02/12 08:56:38;;;;;;;29.13;10.60;;;;;;;-0.71;100.00;102793.28;5090129;28;20016;-79
2022/02/12 08:59:04;;;;;;;26.88;10.90;;;;;;;-0.62;100.00;102794.81;5093672;28;20032;-79
2022/02/12 09:01:30;;;;;;;29.92;10.90;;;;;;;-0.55;100.00;102791.94;5093201;28;20129;-80
2022/02/12 09:03:56;;;;;;;29.42;10.68;;;;;;;-0.52;100.00;102794.78;5093304;28;20028;-80
2022/02/12 09:06:22;;;;;;;27.67;10.65;;;;;;;-0.45;100.00;102798.75;5093226;28;20012;-83
2022/02/12 09:08:51;;;;;;;27.08;10.60;;;;;;;-0.34;100.00;102795.31;5092927;28;20050;-83
2022/02/12 09:11:18;;;;;;;28.17;10.80;;;;;;;-0.03;100.00;102798.69;5093176;28;20440;-77
2022/02/12 09:13:43;;;;;;;28.92;10.30;;;;;;;0.26;100.00;102797.44;5093129;28;20386;-78
2022/02/12 09:16:08;;;;;;;27.77;9.88;;;;;;;0.59;100.00;102800.81;5092873;28;20023;-81
2022/02/12 09:18:34;;;;;;;28.65;10.70;;;;;;;0.89;100.00;102798.72;5093418;28;20039;-78
2022/02/12 09:20:59;;;;;;;28.27;9.63;;;;;;;1.13;100.00;102793.50;5092721;28;20024;-79
2022/02/12 09:23:24;;;;;;;27.42;9.48;;;;;;;1.33;100.00;102788.06;5092747;28;20026;-84
2022/02/12 09:25:50;;;;;;;24.98;9.18;;;;;;;1.55;100.00;102780.09;5093077;28;20020;-80
2022/02/12 09:28:15;;;;;;;28.88;9.38;;;;;;;1.69;100.00;102774.94;5092821;28;20020;-78
2022/02/12 09:30:40;;;;;;;25.20;8.50;;;;;;;1.83;100.00;102773.34;5092478;28;20043;-79
2022/02/12 09:33:06;;;;;;;25.40;8.43;;;;;;;1.96;100.00;102772.50;5092810;28;20044;-79
2022/02/12 09:35:31;;;;;;;24.67;8.18;;;;;;;2.20;100.00;102758.56;5093057;28;20066;-83
2022/02/12 09:37:56;;;;;;;25.85;8.20;;;;;;;2.21;100.00;102764.66;5092889;28;20031;-84
2022/02/12 09:40:22;;;;;;;26.42;8.48;;;;;;;2.29;100.00;102746.91;5092611;28;20031;-79
2022/02/12 09:42:49;;;;;;;24.40;8.50;;;;;;;2.38;100.00;102743.25;5092558;28;20020;-79
2022/02/12 09:45:14;;;;;;;24.45;7.57;;;;;;;2.38;99.15;102738.03;5091233;28;20032;-79
2022/02/12 09:47:48;;;;;;;25.10;8.20;;;;;;;2.33;97.26;102741.13;5092361;28;20020;-77
2022/02/12 09:50:16;;;;;;;25.80;8.35;;;;;;;2.24;100.00;102736.16;5092730;28;20153;-80
2022/02/12 09:52:46;;;;;;;24.40;7.65;;;;;;;2.48;97.84;102736.06;5092614;28;20016;-78
2022/02/12 09:55:12;;;;;;;26.10;8.30;;;;;;;2.42;97.41;102740.03;5092846;28;20065;-77
2022/02/12 09:57:38;;;;;;;25.60;8.13;;;;;;;2.43;97.53;102740.94;5092503;28;20025;-78
2022/02/12 10:00:08;;;;;;;24.95;8.02;;;;;;;2.65;95.02;102731.94;5090916;28;20036;-77
2022/02/12 10:02:33;;;;;;;23.58;7.63;;;;;;;2.74;94.73;102730.84;5092592;28;20067;-78
2022/02/12 10:05:27;;;;;;;24.60;7.65;;;;;;;2.96;97.08;102719.22;5092548;28;20056;-80
2022/02/12 10:08:12;;;;;;;26.13;8.73;;;;;;;3.10;96.67;102718.41;5091242;28;20024;-79
2022/02/12 10:10:37;;;;;;;25.00;8.25;;;;;;;3.12;92.44;102710.66;5088929;28;20485;-79
2022/02/12 10:13:16;;;;;;;25.70;7.82;;;;;;;3.14;94.00;102699.47;5092545;28;20028;-79
2022/02/12 10:15:44;;;;;;;25.13;8.35;;;;;;;3.37;93.06;102702.66;5089681;28;20024;-79
2022/02/12 10:18:10;;;;;;;22.45;7.47;;;;;;;3.49;93.42;102700.84;5091201;28;20382;-78
2022/02/12 10:20:38;;;;;;;26.30;8.57;;;;;;;3.49;91.74;102707.75;5092638;28;20089;-78
2022/02/12 10:23:14;;;;;;;24.38;7.80;;;;;;;3.57;90.14;102689.94;5088678;28;20028;-78
2022/02/12 10:25:42;;;;;;;25.65;8.20;;;;;;;3.41;92.35;102688.97;5089194;28;20131;-77
2022/02/12 10:28:09;;;;;;;24.40;7.72;;;;;;;3.40;91.18;102683.66;5092708;28;20016;-80
2022/02/12 10:30:35;;;;;;;24.48;8.20;;;;;;;3.45;90.75;102680.53;5092143;28;20387;-77
2022/02/12 10:33:02;;;;;;;25.25;8.48;;;;;;;3.75;90.73;102669.25;5092487;28;20026;-77
2022/02/12 10:35:30;;;;;;;24.55;8.00;;;;;;;4.09;89.93;102666.06;5096274;28;20050;-77
2022/02/12 10:38:01;;;;;;;22.98;7.88;;;;;;;4.28;85.63;102660.19;5096258;28;20031;-80
2022/02/12 10:40:27;;;;;;;23.83;7.82;;;;;;;4.78;83.61;102661.34;5096206;28;20070;-79
2022/02/12 10:42:53;;;;;;;24.50;7.88;;;;;;;5.69;81.10;102658.44;5096340;28;20020;-83
2022/02/12 10:45:20;;;;;;;22.98;7.43;;;;;;;6.55;74.53;102662.00;5095841;28;20024;-78
2022/02/12 10:47:46;;;;;;;24.20;7.07;;;;;;;7.21;71.27;102659.94;5095939;28;20131;-79
2022/02/12 10:50:13;;;;;;;22.13;6.38;;;;;;;7.47;66.86;102649.72;5095986;28;20028;-78
2022/02/12 10:52:41;;;;;;;24.95;6.80;;;;;;;7.75;65.47;102651.00;5095693;28;20024;-78
2022/02/12 10:55:07;;;;;;;23.20;6.18;;;;;;;8.48;62.39;102648.00;5096054;28;20147;-83
2022/02/12 10:57:38;;;;;;;22.33;6.40;;;;;;;9.12;62.40;102645.28;5091745;28;20020;-80
2022/02/12 11:00:05;;;;;;;21.55;5.97;;;;;;;9.29;56.06;102636.28;5091889;28;20443;-79
2022/02/12 11:02:31;;;;;;;23.23;6.20;;;;;;;8.77;57.77;102635.13;5095866;28;20344;-77
2022/02/12 11:04:58;;;;;;;21.77;5.82;;;;;;;8.57;57.09;102639.59;5095683;28;20086;-79